Time;durP1;ratioP1;P1;durP2;ratioP2;P2;SDS_P1;SDS_P2;PMS_P1;PMS_P2;Temp;Humidity;BMP_temperature;BMP_pressure;BME280_temperature;BME280_humidity;BME280_pressure;Samples;Min_cycle;Max_cycle;Signal;HPM_P1;HPM_P2
2023/01/25 00:01:20;;;;;;;52.47;24.33;;;;;;;;;;5092619;28;20042;-73
2023/01/25 00:03:47;;;;;;;48.55;23.25;;;;;;;;;;5092207;28;20027;-73
2023/01/25 00:06:13;;;;;;;53.28;24.65;;;;;;;;;;5092343;28;20023;-73
2023/01/25 00:08:39;;;;;;;50.15;22.85;;;;;;;;;;5091903;28;20044;-73
2023/01/25 00:11:05;;;;;;;44.88;22.75;;;;;;;;;;5092000;28;20040;-73
2023/01/25 00:13:32;;;;;;;50.05;24.20;;;;;;;;;;5092164;28;20415;-73
2023/01/25 00:16:02;;;;;;;47.95;22.55;;;;;;;;;;5090989;28;20053;-73
2023/01/25 00:18:28;;;;;;;47.97;23.20;;;;;;;;;;5092123;28;20062;-73
2023/01/25 00:20:54;;;;;;;44.95;21.73;;;;;;;;;;5092149;28;20419;-73
2023/01/25 00:23:21;;;;;;;47.70;23.23;;;;;;;;;;5092082;28;20554;-73
2023/01/25 00:25:47;;;;;;;48.30;23.33;;;;;;;;;;5091569;28;20024;-72
2023/01/25 00:28:13;;;;;;;47.08;23.75;;;;;;;;;;5091846;28;20515;-73
2023/01/25 00:30:40;;;;;;;50.22;23.73;;;;;;;;;;5092152;28;20053;-73
2023/01/25 00:33:26;;;;;;;47.58;23.00;;;;;;;;;;5090629;28;20030;-73
2023/01/25 00:35:55;;;;;;;44.88;22.65;;;;;;;;;;5092257;28;20020;-73
2023/01/25 00:38:34;;;;;;;50.30;22.83;;;;;;;;;;5091844;28;20497;-73
2023/01/25 00:41:00;;;;;;;47.97;23.05;;;;;;;;;;5091729;28;20043;-73
2023/01/25 00:43:26;;;;;;;44.42;21.85;;;;;;;;;;5091994;28;20492;-73
2023/01/25 00:45:59;;;;;;;49.17;23.70;;;;;;;;;;5091962;28;20378;-72
2023/01/25 00:48:25;;;;;;;54.40;24.08;;;;;;;;;;5091673;28;20038;-72
2023/01/25 00:50:52;;;;;;;55.30;25.50;;;;;;;;;;5092031;28;20031;-72
2023/01/25 00:53:18;;;;;;;59.38;26.58;;;;;;;;;;5091907;28;20025;-72
2023/01/25 00:55:51;;;;;;;54.65;24.45;;;;;;;;;;5089852;28;20032;-73
2023/01/25 00:58:17;;;;;;;57.60;25.42;;;;;;;;;;5090555;28;20036;-73
2023/01/25 01:00:44;;;;;;;51.80;24.88;;;;;;;;;;5091801;28;20417;-73
2023/01/25 01:03:10;;;;;;;58.85;26.15;;;;;;;;;;5091853;28;20020;-72
2023/01/25 01:05:36;;;;;;;62.53;27.80;;;;;;;;;;5091594;28;20020;-73
2023/01/25 01:08:03;;;;;;;92.03;38.47;;;;;;;;;;5091604;28;20023;-73
2023/01/25 01:10:29;;;;;;;71.53;29.95;;;;;;;;;;5091144;28;20043;-73
2023/01/25 01:12:56;;;;;;;65.57;28.35;;;;;;;;;;5091565;28;20024;-73
2023/01/25 01:15:22;;;;;;;73.80;30.02;;;;;;;;;;5091555;28;20016;-72
2023/01/25 01:17:48;;;;;;;57.33;25.83;;;;;;;;;;5091825;28;20032;-72
2023/01/25 01:20:15;;;;;;;55.53;24.95;;;;;;;;;;5091406;28;20020;-73
2023/01/25 01:22:41;;;;;;;54.47;24.08;;;;;;;;;;5095085;28;20026;-73
2023/01/25 01:25:08;;;;;;;51.83;23.77;;;;;;;;;;5094583;28;20077;-73
2023/01/25 01:27:34;;;;;;;47.40;22.33;;;;;;;;;;5093783;28;20072;-73
2023/01/25 01:30:00;;;;;;;42.42;20.67;;;;;;;;;;5095475;28;20040;-72
2023/01/25 01:32:27;;;;;;;48.30;22.40;;;;;;;;;;5095044;28;20027;-72
2023/01/25 01:34:53;;;;;;;42.92;21.73;;;;;;;;;;5094884;28;20024;-73
2023/01/25 01:37:19;;;;;;;51.42;22.52;;;;;;;;;;5095047;28;20028;-73
2023/01/25 01:39:46;;;;;;;50.33;24.55;;;;;;;;;;5094502;28;20476;-73
2023/01/25 01:42:12;;;;;;;53.38;25.02;;;;;;;;;;5094835;28;20488;-73
2023/01/25 01:44:44;;;;;;;55.63;26.35;;;;;;;;;;5094961;28;20020;-73
2023/01/25 01:47:22;;;;;;;54.30;26.15;;;;;;;;;;5094588;28;20032;-73
2023/01/25 01:49:52;;;;;;;52.83;24.27;;;;;;;;;;5094461;28;20032;-73
2023/01/25 01:52:22;;;;;;;54.15;25.73;;;;;;;;;;5094225;28;20020;-73
2023/01/25 01:54:48;;;;;;;57.30;26.35;;;;;;;;;;5093111;28;20032;-73
2023/01/25 01:57:17;;;;;;;62.45;27.00;;;;;;;;;;5094242;28;20046;-72
2023/01/25 01:59:50;;;;;;;134.77;41.97;;;;;;;;;;5094613;28;20034;-73
2023/01/25 02:02:16;;;;;;;82.07;36.30;;;;;;;;;;5093110;28;20020;-73
2023/01/25 02:04:44;;;;;;;76.70;34.40;;;;;;;;;;5094503;28;20023;-73
2023/01/25 02:07:19;;;;;;;80.93;36.15;;;;;;;;;;5094095;28;20026;-73
2023/01/25 02:09:45;;;;;;;78.65;35.22;;;;;;;;;;5092726;28;20035;-73
2023/01/25 02:12:12;;;;;;;69.70;32.90;;;;;;;;;;5094105;28;20414;-73
2023/01/25 02:14:45;;;;;;;83.03;37.75;;;;;;;;;;5093949;28;20485;-73
2023/01/25 02:17:11;;;;;;;81.25;34.88;;;;;;;;;;5094180;28;20020;-72
2023/01/25 02:19:58;;;;;;;73.63;32.75;;;;;;;;;;5093944;28;20024;-73
2023/01/25 02:22:30;;;;;;;84.32;36.63;;;;;;;;;;5093735;28;20392;-73
2023/01/25 02:25:05;;;;;;;74.00;33.63;;;;;;;;;;5093678;28;20028;-73
2023/01/25 02:27:33;;;;;;;83.55;35.30;;;;;;;;;;5110041;28;20026;-73
2023/01/25 02:30:00;;;;;;;66.28;30.58;;;;;;;;;;5114084;28;20044;-73
2023/01/25 02:32:26;;;;;;;64.18;29.40;;;;;;;;;;5114052;28;20387;-73
2023/01/25 02:34:53;;;;;;;65.20;30.05;;;;;;;;;;5113062;28;20027;-73
2023/01/25 02:37:19;;;;;;;68.13;29.65;;;;;;;;;;5113765;28;20041;-73
2023/01/25 02:39:45;;;;;;;63.10;29.00;;;;;;;;;;5114347;28;20024;-72
2023/01/25 02:42:12;;;;;;;60.25;27.02;;;;;;;;;;5113894;28;20694;-73
2023/01/25 02:44:38;;;;;;;83.53;30.48;;;;;;;;;;5113858;28;20030;-73
2023/01/25 02:47:04;;;;;;;94.60;32.10;;;;;;;;;;5114205;28;20039;-73
2023/01/25 02:49:34;;;;;;;87.18;30.05;;;;;;;;;;5113624;28;20498;-73
2023/01/25 02:52:00;;;;;;;91.47;32.47;;;;;;;;;;5113538;28;20483;-73
2023/01/25 02:54:26;;;;;;;104.82;32.10;;;;;;;;;;5113205;28;20032;-73
2023/01/25 02:56:53;;;;;;;65.45;28.98;;;;;;;;;;5093164;28;20498;-73
2023/01/25 02:59:19;;;;;;;74.10;30.38;;;;;;;;;;5092402;28;20032;-73
2023/01/25 03:01:45;;;;;;;77.75;30.95;;;;;;;;;;5093398;28;20016;-72
2023/01/25 03:04:12;;;;;;;77.45;29.65;;;;;;;;;;5093235;28;20484;-73
2023/01/25 03:06:39;;;;;;;66.22;29.35;;;;;;;;;;5092803;28;20378;-73
2023/01/25 03:09:06;;;;;;;45.22;22.52;;;;;;;;;;5092918;28;20038;-73
2023/01/25 03:11:32;;;;;;;40.97;19.67;;;;;;;;;;5093015;28;20484;-73
2023/01/25 03:13:59;;;;;;;41.70;21.10;;;;;;;;;;5092912;28;20033;-73
2023/01/25 03:16:25;;;;;;;41.53;20.88;;;;;;;;;;5092960;28;20028;-73
2023/01/25 03:18:55;;;;;;;41.20;20.17;;;;;;;;;;5092873;28;20024;-73
2023/01/25 03:21:22;;;;;;;45.47;21.20;;;;;;;;;;5092432;28;20024;-73
2023/01/25 03:23:54;;;;;;;40.20;19.80;;;;;;;;;;5092799;28;20060;-73
2023/01/25 03:26:21;;;;;;;43.20;20.90;;;;;;;;;;5092728;28;20560;-73
2023/01/25 03:28:48;;;;;;;38.30;19.95;;;;;;;;;;5092947;28;20043;-73
2023/01/25 03:31:15;;;;;;;46.33;20.80;;;;;;;;;;5092764;28;20030;-73
2023/01/25 03:33:41;;;;;;;66.32;33.58;;;;;;;;;;5092601;28;20034;-73
2023/01/25 03:36:08;;;;;;;40.17;21.38;;;;;;;;;;5092774;28;20415;-73
2023/01/25 03:38:35;;;;;;;39.28;20.88;;;;;;;;;;5092632;28;20024;-73
2023/01/25 03:41:01;;;;;;;44.75;22.63;;;;;;;;;;5092849;28;20038;-73
2023/01/25 03:43:28;;;;;;;44.47;22.73;;;;;;;;;;5090977;28;20021;-73
2023/01/25 03:45:55;;;;;;;47.08;22.10;;;;;;;;;;5092542;28;20020;-73
2023/01/25 03:48:22;;;;;;;41.35;21.52;;;;;;;;;;5092178;28;20426;-72
2023/01/25 03:50:49;;;;;;;40.42;20.80;;;;;;;;;;5092528;28;20035;-73
2023/01/25 03:53:28;;;;;;;44.25;21.50;;;;;;;;;;5092533;28;20448;-73
2023/01/25 03:55:58;;;;;;;50.95;22.73;;;;;;;;;;5092012;28;20052;-73
2023/01/25 03:58:24;;;;;;;44.45;21.75;;;;;;;;;;5092330;28;20549;-73
2023/01/25 04:00:51;;;;;;;50.35;24.48;;;;;;;;;;5092446;28;20391;-73
2023/01/25 04:03:18;;;;;;;46.40;23.48;;;;;;;;;;5092055;28;20035;-73
2023/01/25 04:05:45;;;;;;;51.35;24.08;;;;;;;;;;5092444;28;20019;-73
2023/01/25 04:08:11;;;;;;;46.13;23.38;;;;;;;;;;5092205;28;20396;-73
2023/01/25 04:10:38;;;;;;;49.83;24.40;;;;;;;;;;5092193;28;20039;-73
2023/01/25 04:13:04;;;;;;;46.85;22.33;;;;;;;;;;5092212;28;20400;-73
2023/01/25 04:15:30;;;;;;;43.00;22.27;;;;;;;;;;5092353;28;20028;-73
2023/01/25 04:17:57;;;;;;;40.75;20.73;;;;;;;;;;5090588;28;20503;-73
2023/01/25 04:20:24;;;;;;;42.55;21.15;;;;;;;;;;5092068;28;20027;-73
2023/01/25 04:22:50;;;;;;;43.50;23.05;;;;;;;;;;5092115;28;20012;-73
2023/01/25 04:25:16;;;;;;;41.42;21.55;;;;;;;;;;5091125;28;20032;-73
2023/01/25 04:27:42;;;;;;;40.55;21.25;;;;;;;;;;5091936;28;20088;-73
2023/01/25 04:30:09;;;;;;;41.08;21.38;;;;;;;;;;5092065;28;20039;-72
2023/01/25 04:32:36;;;;;;;43.47;22.27;;;;;;;;;;5092038;28;20028;-73
2023/01/25 04:35:02;;;;;;;44.30;21.60;;;;;;;;;;5092039;28;20030;-73
2023/01/25 04:37:29;;;;;;;44.33;22.15;;;;;;;;;;5091852;28;20020;-73
2023/01/25 04:39:55;;;;;;;41.65;20.90;;;;;;;;;;5092206;28;20031;-72
2023/01/25 04:42:21;;;;;;;43.00;21.02;;;;;;;;;;5091718;28;20036;-72
2023/01/25 04:44:47;;;;;;;46.05;23.63;;;;;;;;;;5092102;28;20050;-73
2023/01/25 04:47:14;;;;;;;43.28;22.70;;;;;;;;;;5090300;28;20024;-73
2023/01/25 04:49:40;;;;;;;45.55;22.55;;;;;;;;;;5091740;28;20044;-72
2023/01/25 04:52:06;;;;;;;47.15;22.70;;;;;;;;;;5092039;28;20016;-73
2023/01/25 04:54:33;;;;;;;44.63;22.38;;;;;;;;;;5091528;28;20023;-73
2023/01/25 04:56:59;;;;;;;43.83;22.48;;;;;;;;;;5094383;28;20050;-73
2023/01/25 04:59:25;;;;;;;39.95;21.35;;;;;;;;;;5095584;28;20024;-73
2023/01/25 05:01:52;;;;;;;42.05;21.38;;;;;;;;;;5095247;28;20020;-73
2023/01/25 05:04:18;;;;;;;46.13;23.15;;;;;;;;;;5095301;28;20035;-73
2023/01/25 05:06:44;;;;;;;45.40;21.95;;;;;;;;;;5095702;28;20041;-73
2023/01/25 05:09:11;;;;;;;41.25;21.38;;;;;;;;;;5095210;28;20397;-72
2023/01/25 05:11:37;;;;;;;41.13;21.52;;;;;;;;;;5095369;28;20028;-73
2023/01/25 05:14:03;;;;;;;41.95;21.55;;;;;;;;;;5095338;28;20445;-73
2023/01/25 05:16:30;;;;;;;41.90;21.80;;;;;;;;;;5093771;28;20020;-73
2023/01/25 05:18:56;;;;;;;47.33;22.77;;;;;;;;;;5095205;28;20032;-73
2023/01/25 05:24:08;;;;;;;45.22;21.98;;;;;;;;;;5095055;28;20030;-73
2023/01/25 05:29:19;;;;;;;45.53;21.35;;;;;;;;;;5095008;28;20036;-73
2023/01/25 05:31:45;;;;;;;42.75;22.50;;;;;;;;;;5094634;28;20024;-73
2023/01/25 05:34:11;;;;;;;48.13;21.55;;;;;;;;;;5093654;28;20050;-72
2023/01/25 05:36:38;;;;;;;43.83;21.52;;;;;;;;;;5094941;28;20045;-73
2023/01/25 05:39:05;;;;;;;47.70;21.95;;;;;;;;;;5094965;28;20031;-73
2023/01/25 05:41:32;;;;;;;41.50;22.33;;;;;;;;;;5094852;28;20022;-72
2023/01/25 05:43:58;;;;;;;43.97;22.10;;;;;;;;;;5094665;28;20028;-72
2023/01/25 05:46:26;;;;;;;48.03;22.55;;;;;;;;;;5094793;28;20020;-73
2023/01/25 05:48:52;;;;;;;45.28;22.23;;;;;;;;;;5094592;28;20034;-72
2023/01/25 05:51:18;;;;;;;44.03;22.48;;;;;;;;;;5094661;28;20031;-72
2023/01/25 05:53:45;;;;;;;55.78;23.83;;;;;;;;;;5094535;28;20020;-73
2023/01/25 05:56:11;;;;;;;51.63;24.15;;;;;;;;;;5094086;28;20411;-73
2023/01/25 05:58:38;;;;;;;46.03;23.00;;;;;;;;;;5094306;28;20020;-73
2023/01/25 06:01:05;;;;;;;45.65;22.98;;;;;;;;;;5094769;28;20084;-73
2023/01/25 06:03:32;;;;;;;49.45;23.27;;;;;;;;;;5094679;28;20032;-73
2023/01/25 06:06:01;;;;;;;46.80;22.55;;;;;;;;;;5094167;28;20500;-73
2023/01/25 06:08:28;;;;;;;54.92;24.23;;;;;;;;;;5093762;28;20024;-73
2023/01/25 06:10:54;;;;;;;230.50;64.97;;;;;;;;;;5094158;28;20036;-73
2023/01/25 06:13:21;;;;;;;75.07;29.30;;;;;;;;;;5093895;28;20027;-73
2023/01/25 06:15:54;;;;;;;63.13;27.13;;;;;;;;;;5094010;28;20020;-73
2023/01/25 06:18:21;;;;;;;60.80;26.17;;;;;;;;;;5094220;28;20073;-73
2023/01/25 06:20:47;;;;;;;49.97;23.65;;;;;;;;;;5094185;28;20026;-73
2023/01/25 06:23:14;;;;;;;53.65;25.88;;;;;;;;;;5094365;28;20046;-73
2023/01/25 06:25:40;;;;;;;53.42;25.55;;;;;;;;;;5092669;28;20035;-73
2023/01/25 06:28:06;;;;;;;65.20;28.45;;;;;;;;;;5093427;28;20020;-74
2023/01/25 06:30:33;;;;;;;50.65;24.35;;;;;;;;;;5093039;28;20036;-73
2023/01/25 06:32:59;;;;;;;52.58;24.50;;;;;;;;;;5093657;28;20016;-73
2023/01/25 06:35:26;;;;;;;45.22;21.85;;;;;;;;;;5093812;28;20032;-73
2023/01/25 06:37:56;;;;;;;50.55;23.30;;;;;;;;;;5093596;28;20030;-72
2023/01/25 06:40:22;;;;;;;69.65;27.95;;;;;;;;;;5093650;28;20089;-73
2023/01/25 06:42:48;;;;;;;60.95;26.92;;;;;;;;;;5093263;28;20030;-73
2023/01/25 06:45:15;;;;;;;68.55;29.30;;;;;;;;;;5093511;28;20028;-73
2023/01/25 06:47:41;;;;;;;54.65;25.70;;;;;;;;;;5093717;28;20028;-72
2023/01/25 06:50:08;;;;;;;47.42;23.25;;;;;;;;;;5093346;28;20515;-73
2023/01/25 06:52:37;;;;;;;57.03;26.10;;;;;;;;;;5093662;28;20038;-72
2023/01/25 06:55:05;;;;;;;43.33;22.15;;;;;;;;;;5093151;28;20016;-73
2023/01/25 06:57:32;;;;;;;44.75;21.70;;;;;;;;;;5092812;28;20047;-72
2023/01/25 06:59:58;;;;;;;41.08;20.92;;;;;;;;;;5093428;28;20030;-72
2023/01/25 07:02:24;;;;;;;39.22;19.20;;;;;;;;;;5093252;28;20028;-73
2023/01/25 07:04:51;;;;;;;36.70;18.48;;;;;;;;;;5093359;28;20027;-73
2023/01/25 07:07:17;;;;;;;35.72;17.83;;;;;;;;;;5093072;28;20024;-73
2023/01/25 07:09:43;;;;;;;33.95;17.33;;;;;;;;;;5090898;28;20536;-73
2023/01/25 07:12:10;;;;;;;38.13;19.80;;;;;;;;;;5087780;28;20024;-72
2023/01/25 07:14:36;;;;;;;39.40;20.92;;;;;;;;;;5091459;28;20035;-73
2023/01/25 07:17:02;;;;;;;35.50;19.15;;;;;;;;;;5091595;28;20024;-73
2023/01/25 07:19:29;;;;;;;39.95;20.30;;;;;;;;;;5091292;28;20040;-72
2023/01/25 07:21:56;;;;;;;37.53;18.80;;;;;;;;;;5091940;28;20392;-71
2023/01/25 07:24:25;;;;;;;37.90;19.40;;;;;;;;;;5092708;28;20024;-71
2023/01/25 07:26:52;;;;;;;37.00;18.55;;;;;;;;;;5092293;28;20509;-72
2023/01/25 07:29:18;;;;;;;36.47;18.13;;;;;;;;;;5092409;28;20032;-72
2023/01/25 07:31:44;;;;;;;39.95;20.42;;;;;;;;;;5089521;28;20024;-71
2023/01/25 07:34:12;;;;;;;46.47;23.08;;;;;;;;;;5090581;28;20500;-71
2023/01/25 07:36:38;;;;;;;59.92;30.15;;;;;;;;;;5091755;28;20419;-72
2023/01/25 07:39:05;;;;;;;39.50;19.95;;;;;;;;;;5092119;28;20937;-72
2023/01/25 07:41:32;;;;;;;39.53;19.33;;;;;;;;;;5091267;28;20024;-71
2023/01/25 07:43:58;;;;;;;41.38;20.40;;;;;;;;;;5091753;28;20058;-72
2023/01/25 07:46:24;;;;;;;41.35;20.33;;;;;;;;;;5089239;28;20016;-72
2023/01/25 07:48:52;;;;;;;41.83;20.48;;;;;;;;;;5090755;28;20052;-72
2023/01/25 07:51:22;;;;;;;72.50;24.95;;;;;;;;;;5091715;28;20020;-73
2023/01/25 07:53:53;;;;;;;51.58;22.25;;;;;;;;;;5091173;28;20052;-72
2023/01/25 07:56:20;;;;;;;41.65;20.15;;;;;;;;;;5091289;28;20722;-72
2023/01/25 07:58:47;;;;;;;37.88;19.92;;;;;;;;;;5091078;28;20023;-72
2023/01/25 08:01:15;;;;;;;35.53;19.08;;;;;;;;;;5091738;28;20032;-72
2023/01/25 08:03:42;;;;;;;37.63;19.45;;;;;;;;;;5090785;28;20020;-72
2023/01/25 08:06:09;;;;;;;40.33;20.13;;;;;;;;;;5089812;28;20504;-72
2023/01/25 08:08:37;;;;;;;37.78;18.98;;;;;;;;;;5091226;28;20442;-72
2023/01/25 08:11:17;;;;;;;38.65;19.33;;;;;;;;;;5091189;28;20038;-71
2023/01/25 08:13:45;;;;;;;42.80;20.45;;;;;;;;;;5127346;28;20023;-72
2023/01/25 08:16:15;;;;;;;39.03;19.73;;;;;;;;;;5111556;28;20031;-72
2023/01/25 08:18:41;;;;;;;42.33;21.42;;;;;;;;;;5096356;28;20032;-72
2023/01/25 08:21:08;;;;;;;38.78;20.08;;;;;;;;;;5090027;28;20032;-72
2023/01/25 08:23:35;;;;;;;40.35;19.25;;;;;;;;;;5089852;28;20121;-72
2023/01/25 08:26:04;;;;;;;40.92;20.73;;;;;;;;;;5091304;28;20042;-71
2023/01/25 08:28:31;;;;;;;40.88;20.38;;;;;;;;;;5092228;28;20439;-72
2023/01/25 08:31:06;;;;;;;39.13;20.23;;;;;;;;;;5094375;28;20023;-72
2023/01/25 08:33:33;;;;;;;39.75;18.98;;;;;;;;;;5101117;28;20511;-72
2023/01/25 08:35:59;;;;;;;44.45;22.35;;;;;;;;;;5095689;28;20028;-72
2023/01/25 08:38:25;;;;;;;47.95;22.35;;;;;;;;;;5093103;28;20078;-72
2023/01/25 08:40:52;;;;;;;35.50;17.88;;;;;;;;;;5095209;28;20020;-72
2023/01/25 08:43:18;;;;;;;42.30;21.73;;;;;;;;;;5094214;28;20016;-72
2023/01/25 08:45:44;;;;;;;38.45;19.10;;;;;;;;;;5094656;28;20034;-71
2023/01/25 08:48:14;;;;;;;39.67;19.80;;;;;;;;;;5095321;28;20020;-72
2023/01/25 08:50:46;;;;;;;37.95;19.27;;;;;;;;;;5094399;28;20032;-72
2023/01/25 08:53:13;;;;;;;42.05;19.77;;;;;;;;;;5094709;28;20032;-72
2023/01/25 08:55:41;;;;;;;43.70;21.60;;;;;;;;;;5094602;28;20042;-71
2023/01/25 08:58:12;;;;;;;39.10;20.02;;;;;;;;;;5092306;28;20034;-72
2023/01/25 09:00:39;;;;;;;197.43;72.97;;;;;;;;;;5093167;28;20032;-72
2023/01/25 09:03:06;;;;;;;39.78;20.92;;;;;;;;;;5096142;28;20036;-72
2023/01/25 09:05:36;;;;;;;43.55;21.58;;;;;;;;;;5090410;28;20420;-72
2023/01/25 09:08:03;;;;;;;42.08;21.15;;;;;;;;;;5091215;28;20024;-71
2023/01/25 09:10:29;;;;;;;41.30;20.13;;;;;;;;;;5093519;28;20024;-72
2023/01/25 09:12:55;;;;;;;44.45;21.05;;;;;;;;;;5106729;28;20027;-71
2023/01/25 09:15:22;;;;;;;38.30;19.73;;;;;;;;;;5094953;28;20032;-71
2023/01/25 09:17:55;;;;;;;66.82;30.88;;;;;;;;;;5105379;28;20028;-71
2023/01/25 09:20:22;;;;;;;44.97;22.52;;;;;;;;;;5114218;28;20027;-71
2023/01/25 09:22:49;;;;;;;42.35;21.10;;;;;;;;;;5101095;28;20103;-72
2023/01/25 09:25:15;;;;;;;40.72;19.55;;;;;;;;;;5093270;28;20028;-71
2023/01/25 09:27:42;;;;;;;43.17;21.17;;;;;;;;;;5093810;28;20036;-72
2023/01/25 09:30:09;;;;;;;40.88;20.77;;;;;;;;;;5092839;28;20580;-73
2023/01/25 09:32:36;;;;;;;42.67;22.00;;;;;;;;;;5092974;28;20028;-72
2023/01/25 09:35:03;;;;;;;39.47;19.80;;;;;;;;;;5092488;28;20032;-70
2023/01/25 09:37:29;;;;;;;45.00;22.17;;;;;;;;;;5092607;28;20034;-71
2023/01/25 09:39:56;;;;;;;48.47;23.90;;;;;;;;;;5092494;28;20036;-72
2023/01/25 09:42:31;;;;;;;37.45;20.55;;;;;;;;;;5098087;28;20031;-71
2023/01/25 09:45:16;;;;;;;37.28;19.83;;;;;;;;;;5091440;28;20085;-71
2023/01/25 09:47:51;;;;;;;40.45;21.05;;;;;;;;;;5094739;28;20028;-71
2023/01/25 09:50:18;;;;;;;49.55;23.83;;;;;;;;;;5092301;28;20088;-72
2023/01/25 09:52:52;;;;;;;48.38;23.60;;;;;;;;;;5092284;28;20035;-75
2023/01/25 09:55:21;;;;;;;71.88;31.63;;;;;;;;;;5092536;28;20028;-72
2023/01/25 09:57:52;;;;;;;45.67;23.10;;;;;;;;;;5091854;28;20054;-72
2023/01/25 10:00:46;;;;;;;43.88;23.10;;;;;;;;;;5092505;28;20028;-73
2023/01/25 10:03:20;;;;;;;42.63;21.02;;;;;;;;;;5103585;28;20035;-72
2023/01/25 10:05:51;;;;;;;39.42;21.25;;;;;;;;;;5091199;28;20404;-72
2023/01/25 10:08:24;;;;;;;40.22;21.92;;;;;;;;;;5092555;28;20020;-71
2023/01/25 10:10:55;;;;;;;62.15;28.63;;;;;;;;;;5088373;28;20536;-72
2023/01/25 10:13:23;;;;;;;108.60;47.20;;;;;;;;;;5089997;28;20123;-72
2023/01/25 10:15:52;;;;;;;48.20;23.27;;;;;;;;;;5091813;28;20404;-72
2023/01/25 10:18:18;;;;;;;43.53;22.17;;;;;;;;;;5091887;28;20012;-72
2023/01/25 10:20:47;;;;;;;41.45;21.13;;;;;;;;;;5091825;28;20039;-72
2023/01/25 10:23:37;;;;;;;44.58;21.95;;;;;;;;;;5092130;28;20563;-72
2023/01/25 10:26:18;;;;;;;43.97;22.63;;;;;;;;;;5094103;28;20069;-72
2023/01/25 10:28:54;;;;;;;41.70;22.35;;;;;;;;;;5095763;28;20046;-72
2023/01/25 10:31:26;;;;;;;41.85;22.15;;;;;;;;;;5106801;28;20024;-72
2023/01/25 10:33:54;;;;;;;42.03;22.40;;;;;;;;;;5103651;28;20026;-72
2023/01/25 10:36:27;;;;;;;47.38;24.25;;;;;;;;;;5092017;28;20028;-72
2023/01/25 10:38:58;;;;;;;45.33;24.08;;;;;;;;;;5070947;28;20032;-72
2023/01/25 10:41:42;;;;;;;43.85;23.25;;;;;;;;;;5087475;28;20036;-72
2023/01/25 10:44:22;;;;;;;42.05;21.55;;;;;;;;;;5091804;28;20028;-72
2023/01/25 10:46:51;;;;;;;41.22;21.80;;;;;;;;;;5089860;28;20036;-72
2023/01/25 10:49:18;;;;;;;43.45;21.40;;;;;;;;;;5090631;28;20434;-71
2023/01/25 10:51:44;;;;;;;41.88;21.40;;;;;;;;;;5090921;28;20496;-72
2023/01/25 10:54:14;;;;;;;41.58;21.27;;;;;;;;;;5091639;28;20020;-72
2023/01/25 10:56:41;;;;;;;38.92;21.92;;;;;;;;;;5091368;28;20052;-72
2023/01/25 10:59:19;;;;;;;40.17;21.83;;;;;;;;;;5090527;28;20500;-72
2023/01/25 11:01:46;;;;;;;39.25;20.90;;;;;;;;;;5090868;28;20392;-72
2023/01/25 11:04:31;;;;;;;39.97;21.77;;;;;;;;;;5090441;28;20030;-72
2023/01/25 11:06:58;;;;;;;38.50;21.10;;;;;;;;;;5089300;28;20054;-72
2023/01/25 11:09:30;;;;;;;40.22;20.85;;;;;;;;;;5091689;28;20042;-72
2023/01/25 11:12:01;;;;;;;40.95;21.80;;;;;;;;;;5091642;28;20040;-72
2023/01/25 11:14:29;;;;;;;44.10;22.73;;;;;;;;;;5091646;28;20020;-72
2023/01/25 11:16:56;;;;;;;44.10;24.13;;;;;;;;;;5091522;28;20043;-72
2023/01/25 11:19:38;;;;;;;45.05;23.15;;;;;;;;;;5091395;28;20034;-72
2023/01/25 11:22:06;;;;;;;44.42;23.60;;;;;;;;;;5091682;28;20534;-72
2023/01/25 11:24:34;;;;;;;50.15;26.20;;;;;;;;;;5091532;28;20034;-72
2023/01/25 11:27:15;;;;;;;48.30;24.63;;;;;;;;;;5091589;28;20032;-72
2023/01/25 11:29:42;;;;;;;47.10;24.67;;;;;;;;;;5091515;28;20035;-72
2023/01/25 11:32:23;;;;;;;45.40;23.77;;;;;;;;;;5090791;28;20024;-72
2023/01/25 11:34:50;;;;;;;47.13;24.90;;;;;;;;;;5092578;28;20488;-72
2023/01/25 11:37:19;;;;;;;47.92;24.52;;;;;;;;;;5091872;28;20020;-72
2023/01/25 11:40:11;;;;;;;45.88;23.98;;;;;;;;;;5092059;28;20536;-72
2023/01/25 11:42:46;;;;;;;42.00;21.75;;;;;;;;;;5010334;28;20038;-72
2023/01/25 11:45:18;;;;;;;48.75;24.08;;;;;;;;;;5009868;28;20041;-72
2023/01/25 11:48:07;;;;;;;42.67;22.65;;;;;;;;;;5009590;28;20525;-72
2023/01/25 11:50:33;;;;;;;42.35;22.85;;;;;;;;;;5009636;28;20087;-72
2023/01/25 11:53:12;;;;;;;41.95;20.92;;;;;;;;;;5009700;28;20029;-72
2023/01/25 11:56:01;;;;;;;41.67;22.70;;;;;;;;;;5009434;28;20053;-72
2023/01/25 11:58:53;;;;;;;42.13;23.33;;;;;;;;;;4951404;29;20047;-72
2023/01/25 12:01:19;;;;;;;42.00;21.75;;;;;;;;;;4951139;29;20045;-72
2023/01/25 12:03:53;;;;;;;43.63;23.35;;;;;;;;;;4951451;29;20039;-72
2023/01/25 12:06:19;;;;;;;44.33;22.90;;;;;;;;;;4951205;28;20501;-71
2023/01/25 12:09:01;;;;;;;45.67;24.02;;;;;;;;;;4953826;28;20042;-72
2023/01/25 12:11:33;;;;;;;45.28;23.33;;;;;;;;;;4968137;28;20120;-72
2023/01/25 12:14:10;;;;;;;48.30;24.13;;;;;;;;;;4951127;29;20039;-72
2023/01/25 12:16:40;;;;;;;42.30;23.13;;;;;;;;;;4951074;28;20047;-71
2023/01/25 12:19:13;;;;;;;43.63;22.97;;;;;;;;;;4981538;28;20055;-71
2023/01/25 12:21:39;;;;;;;41.95;22.40;;;;;;;;;;5032889;28;20064;-70
2023/01/25 12:24:11;;;;;;;40.63;22.13;;;;;;;;;;5049405;28;20025;-70
2023/01/25 12:26:40;;;;;;;36.63;20.98;;;;;;;;;;5049425;28;20029;-70
2023/01/25 12:29:23;;;;;;;39.67;20.95;;;;;;;;;;5048857;28;20044;-70
2023/01/25 12:32:01;;;;;;;44.15;21.85;;;;;;;;;;5052118;28;20020;-72
2023/01/25 12:34:35;;;;;;;43.53;22.75;;;;;;;;;;5072900;28;20040;-72
2023/01/25 12:37:06;;;;;;;46.65;22.73;;;;;;;;;;5111731;28;20020;-72
2023/01/25 12:39:37;;;;;;;44.15;24.08;;;;;;;;;;5112293;28;20031;-70
2023/01/25 12:42:16;;;;;;;45.28;23.38;;;;;;;;;;5111685;28;20030;-71
2023/01/25 12:44:46;;;;;;;45.47;23.15;;;;;;;;;;5111825;28;20026;-71
2023/01/25 12:47:21;;;;;;;50.03;25.35;;;;;;;;;;5111973;28;20533;-71
2023/01/25 12:49:47;;;;;;;50.03;25.52;;;;;;;;;;5111737;28;20032;-72
2023/01/25 12:52:24;;;;;;;52.60;27.17;;;;;;;;;;5111349;28;20024;-71
2023/01/25 12:54:51;;;;;;;48.00;25.23;;;;;;;;;;5107921;28;20016;-72
2023/01/25 12:57:28;;;;;;;46.08;24.30;;;;;;;;;;5089867;28;20066;-72
2023/01/25 13:00:03;;;;;;;44.95;23.20;;;;;;;;;;5089061;28;20028;-72
2023/01/25 13:02:42;;;;;;;48.85;24.75;;;;;;;;;;5095445;28;20019;-72
2023/01/25 13:05:09;;;;;;;47.60;24.23;;;;;;;;;;5070816;28;20396;-71
2023/01/25 13:07:39;;;;;;;41.35;22.42;;;;;;;;;;5082443;28;20025;-71
2023/01/25 13:10:17;;;;;;;43.83;22.98;;;;;;;;;;5091071;28;20500;-72
2023/01/25 13:13:03;;;;;;;46.90;24.15;;;;;;;;;;5098301;28;20024;-72
2023/01/25 13:15:39;;;;;;;53.10;24.33;;;;;;;;;;5091097;28;20038;-72
2023/01/25 13:18:24;;;;;;;46.60;23.65;;;;;;;;;;5109138;28;20030;-72
2023/01/25 13:20:57;;;;;;;111.72;43.90;;;;;;;;;;5115649;28;20027;-72
2023/01/25 13:23:32;;;;;;;303.40;115.03;;;;;;;;;;5106650;28;20054;-72
2023/01/25 13:26:17;;;;;;;395.00;149.35;;;;;;;;;;5094787;28;20485;-72
2023/01/25 13:28:45;;;;;;;120.80;51.22;;;;;;;;;;5094152;28;20039;-72
2023/01/25 13:31:30;;;;;;;77.97;36.60;;;;;;;;;;5094745;28;20043;-72
2023/01/25 13:33:59;;;;;;;42.17;20.40;;;;;;;;;;5113273;28;20039;-71
2023/01/25 13:36:44;;;;;;;42.17;20.80;;;;;;;;;;5114823;28;20024;-71
2023/01/25 13:39:31;;;;;;;44.00;20.25;;;;;;;;;;5114645;28;20429;-72
2023/01/25 13:41:58;;;;;;;32.55;16.40;;;;;;;;;;5113489;28;20008;-72
2023/01/25 13:44:27;;;;;;;38.92;20.10;;;;;;;;;;5112990;28;20031;-72
2023/01/25 13:47:00;;;;;;;37.65;18.48;;;;;;;;;;5114075;28;20062;-72
2023/01/25 13:49:30;;;;;;;33.60;16.02;;;;;;;;;;5114595;28;20035;-72
2023/01/25 13:51:58;;;;;;;30.35;16.33;;;;;;;;;;5114085;28;20080;-72
2023/01/25 13:54:25;;;;;;;37.15;18.60;;;;;;;;;;5114184;28;20030;-72
2023/01/25 13:57:04;;;;;;;31.98;16.02;;;;;;;;;;5076060;28;20059;-72
2023/01/25 13:59:30;;;;;;;27.58;15.18;;;;;;;;;;5094243;28;20038;-72
2023/01/25 14:01:58;;;;;;;27.40;13.02;;;;;;;;;;5094291;28;20019;-72
2023/01/25 14:04:25;;;;;;;25.38;12.50;;;;;;;;;;5093792;28;20503;-71
2023/01/25 14:06:55;;;;;;;30.65;14.07;;;;;;;;;;5095618;28;20016;-72
2023/01/25 14:09:21;;;;;;;28.73;13.13;;;;;;;;;;5105768;28;20020;-72
2023/01/25 14:11:57;;;;;;;29.95;12.88;;;;;;;;;;5093420;28;20024;-71
2023/01/25 14:14:27;;;;;;;28.15;13.45;;;;;;;;;;5093895;28;20519;-72
2023/01/25 14:17:20;;;;;;;26.80;13.38;;;;;;;;;;5092913;28;20030;-72
2023/01/25 14:19:48;;;;;;;30.25;13.95;;;;;;;;;;5090144;28;20042;-72
2023/01/25 14:22:15;;;;;;;30.95;13.25;;;;;;;;;;5094045;28;20018;-71
2023/01/25 14:24:41;;;;;;;26.08;12.95;;;;;;;;;;5093865;28;20024;-71
2023/01/25 14:27:11;;;;;;;31.05;13.98;;;;;;;;;;5101680;28;20030;-70
2023/01/25 14:29:37;;;;;;;25.13;12.53;;;;;;;;;;5092920;28;20046;-72
2023/01/25 14:32:04;;;;;;;25.38;12.68;;;;;;;;;;5095331;28;20020;-72
2023/01/25 14:34:30;;;;;;;24.17;12.50;;;;;;;;;;5092740;28;20024;-71